createdAt,value
2023-03-04T00:02:14.458Z,20.75
2023-03-04T00:04:41.181Z,23.13
2023-03-04T00:07:07.979Z,24.05
2023-03-04T00:09:34.663Z,22.77
2023-03-04T00:12:01.413Z,22.08
2023-03-04T00:14:30.366Z,25.58
2023-03-04T00:16:57.192Z,25.98
2023-03-04T00:19:24.038Z,28.10
2023-03-04T00:21:50.717Z,26.08
2023-03-04T00:24:17.525Z,26.17
2023-03-04T00:26:44.318Z,28.40
2023-03-04T00:29:11.053Z,25.55
2023-03-04T00:31:37.783Z,27.25
2023-03-04T00:34:04.543Z,23.80
2023-03-04T00:36:31.243Z,25.30
2023-03-04T00:38:57.979Z,24.65
2023-03-04T00:41:24.653Z,25.55
2023-03-04T00:43:51.589Z,25.00
2023-03-04T00:46:18.317Z,24.67
2023-03-04T00:48:46.215Z,25.25
2023-03-04T00:51:12.949Z,25.33
2023-03-04T00:53:39.690Z,24.33
2023-03-04T00:56:06.922Z,25.98
2023-03-04T00:58:33.595Z,26.92
2023-03-04T01:01:00.322Z,24.95
2023-03-04T01:03:29.800Z,25.60
2023-03-04T01:08:24.321Z,24.83
2023-03-04T01:10:50.971Z,25.83
2023-03-04T01:13:17.676Z,26.20
2023-03-04T01:15:44.454Z,25.73
2023-03-04T01:18:11.416Z,24.88
2023-03-04T01:20:38.106Z,26.95
2023-03-04T01:23:06.116Z,26.05
2023-03-04T01:25:33.009Z,25.98
2023-03-04T01:27:59.706Z,24.00
2023-03-04T01:30:26.407Z,25.13
2023-03-04T01:32:53.066Z,21.70
2023-03-04T01:35:19.809Z,22.42
2023-03-04T01:37:46.555Z,23.77
2023-03-04T01:40:13.844Z,24.92
2023-03-04T01:42:41.165Z,22.33
2023-03-04T01:45:12.664Z,23.38
2023-03-04T01:47:39.372Z,23.30
2023-03-04T01:50:11.073Z,22.13
2023-03-04T01:52:38.971Z,22.40
2023-03-04T01:55:14.663Z,19.75
2023-03-04T01:57:41.436Z,21.27
2023-03-04T02:00:22.093Z,20.08
2023-03-04T02:02:50.738Z,19.63
2023-03-04T02:05:17.840Z,20.90
2023-03-04T02:07:44.624Z,19.13
2023-03-04T02:10:12.661Z,20.95
2023-03-04T02:12:39.865Z,21.52
2023-03-04T02:15:07.287Z,22.75
2023-03-04T02:17:34.004Z,21.92
2023-03-04T02:20:08.024Z,24.70
2023-03-04T02:22:38.330Z,23.85
2023-03-04T02:25:11.419Z,23.23
2023-03-04T02:27:38.078Z,22.83
2023-03-04T02:30:05.297Z,22.48
2023-03-04T02:32:32.147Z,23.13
2023-03-04T02:34:58.878Z,22.67
2023-03-04T02:37:25.552Z,22.25
2023-03-04T02:39:52.266Z,22.30
2023-03-04T02:42:19.044Z,21.88
2023-03-04T02:44:48.469Z,21.33
2023-03-04T02:49:42.384Z,21.85
2023-03-04T02:52:15.292Z,23.20
2023-03-04T02:54:42.093Z,22.80
2023-03-04T02:57:10.818Z,21.13
2023-03-04T02:59:39.327Z,19.83
2023-03-04T03:02:07.121Z,20.23
2023-03-04T03:04:34.123Z,20.45
2023-03-04T03:07:00.813Z,22.17
2023-03-04T03:09:27.502Z,21.67
2023-03-04T03:11:54.219Z,24.83
2023-03-04T03:14:21.382Z,22.55
2023-03-04T03:16:48.217Z,24.52
2023-03-04T03:19:14.860Z,23.30
2023-03-04T03:21:41.555Z,22.40
2023-03-04T03:24:08.762Z,25.40
2023-03-04T03:26:35.657Z,25.00
2023-03-04T03:29:02.409Z,23.42
2023-03-04T03:31:29.152Z,24.73
2023-03-04T03:33:55.850Z,23.88
2023-03-04T03:36:22.622Z,23.08
2023-03-04T03:38:49.266Z,23.27
2023-03-04T03:41:15.963Z,23.60
2023-03-04T03:43:42.691Z,23.25
2023-03-04T03:46:09.371Z,23.50
2023-03-04T03:48:36.089Z,22.70
2023-03-04T03:51:02.787Z,23.98
2023-03-04T03:53:29.500Z,22.35
2023-03-04T03:55:56.181Z,21.00
2023-03-04T03:58:23.269Z,24.40
2023-03-04T04:00:49.982Z,22.42
2023-03-04T04:03:17.188Z,23.35
2023-03-04T04:05:43.871Z,20.75
2023-03-04T04:08:14.768Z,23.30
2023-03-04T04:10:41.961Z,20.60
2023-03-04T04:13:08.864Z,21.48
2023-03-04T04:15:36.818Z,20.63
2023-03-04T04:18:03.542Z,21.52
2023-03-04T04:20:30.237Z,21.10
2023-03-04T04:22:56.936Z,22.27
2023-03-04T04:25:23.578Z,21.95
2023-03-04T04:27:50.278Z,23.25
2023-03-04T04:30:17.068Z,26.15
2023-03-04T04:32:43.826Z,24.30
2023-03-04T04:35:10.763Z,22.40
2023-03-04T04:37:37.419Z,22.13
2023-03-04T04:40:04.994Z,23.88
2023-03-04T04:42:31.697Z,23.27
2023-03-04T04:44:58.444Z,21.58
2023-03-04T04:47:25.222Z,21.65
2023-03-04T04:49:52.058Z,22.92
2023-03-04T04:52:18.793Z,23.48
2023-03-04T04:54:45.452Z,23.60
2023-03-04T04:57:12.184Z,23.67
2023-03-04T04:59:38.863Z,25.48
2023-03-04T05:02:05.545Z,24.10
2023-03-04T05:04:32.224Z,23.25
2023-03-04T05:06:59.016Z,24.70
2023-03-04T05:09:25.682Z,26.17
2023-03-04T05:11:52.678Z,25.42
2023-03-04T05:14:19.433Z,25.45
2023-03-04T05:16:46.170Z,25.02
2023-03-04T05:19:12.904Z,27.90
2023-03-04T05:21:39.667Z,24.77
2023-03-04T05:24:06.697Z,24.95
2023-03-04T05:26:33.478Z,24.75
2023-03-04T05:29:00.144Z,23.85
2023-03-04T05:31:27.000Z,25.02
2023-03-04T05:33:53.914Z,24.77
2023-03-04T05:36:20.680Z,24.27
2023-03-04T05:38:47.418Z,26.90
2023-03-04T05:41:14.139Z,26.02
2023-03-04T05:43:42.978Z,23.83
2023-03-04T05:46:15.297Z,24.73
2023-03-04T05:48:42.884Z,23.13
2023-03-04T05:51:09.588Z,23.00
2023-03-04T05:53:37.053Z,23.08
2023-03-04T05:56:08.760Z,22.67
2023-03-04T05:58:35.515Z,21.85
2023-03-04T06:01:02.283Z,24.05
2023-03-04T06:03:28.985Z,22.17
2023-03-04T06:05:55.804Z,22.00
2023-03-04T06:08:22.517Z,24.38
2023-03-04T06:10:52.422Z,23.30
2023-03-04T06:13:19.250Z,23.80
2023-03-04T06:15:46.021Z,23.63
2023-03-04T06:18:12.895Z,22.23
2023-03-04T06:20:39.646Z,25.15
2023-03-04T06:23:06.343Z,25.90
2023-03-04T06:25:33.070Z,23.40
2023-03-04T06:27:59.742Z,24.42
2023-03-04T06:30:26.540Z,22.98
2023-03-04T06:32:53.228Z,23.20
2023-03-04T06:35:19.979Z,23.25
2023-03-04T06:37:46.739Z,21.65
2023-03-04T06:40:13.803Z,24.00
2023-03-04T06:42:41.376Z,23.05
2023-03-04T06:45:08.924Z,25.45
2023-03-04T06:47:35.585Z,26.45
2023-03-04T06:50:03.723Z,29.30
2023-03-04T06:52:30.444Z,30.23
2023-03-04T06:54:57.174Z,29.38
2023-03-04T06:57:23.902Z,34.75
2023-03-04T06:59:50.600Z,33.08
2023-03-04T07:02:17.245Z,34.67
2023-03-04T07:04:43.923Z,31.73
2023-03-04T07:07:11.728Z,32.38
2023-03-04T07:09:38.444Z,32.28
2023-03-04T07:12:05.429Z,27.90
2023-03-04T07:14:32.089Z,30.10
2023-03-04T07:16:58.807Z,27.83
2023-03-04T07:19:25.715Z,28.83
2023-03-04T07:21:52.356Z,29.55
2023-03-04T07:24:19.121Z,28.42
2023-03-04T07:26:45.915Z,24.92
2023-03-04T07:29:13.176Z,26.20
2023-03-04T07:31:39.964Z,23.27
2023-03-04T07:34:10.092Z,22.90
2023-03-04T07:36:37.107Z,24.77
2023-03-04T07:39:04.807Z,25.00
2023-03-04T07:41:31.823Z,23.33
2023-03-04T07:43:59.071Z,22.77
2023-03-04T07:46:26.252Z,23.55
2023-03-04T07:48:53.150Z,24.02
2023-03-04T07:51:22.256Z,23.55
2023-03-04T07:53:51.562Z,23.08
2023-03-04T07:56:23.139Z,22.08
2023-03-04T07:58:53.586Z,22.85
2023-03-04T08:01:23.221Z,21.85
2023-03-04T08:03:49.963Z,23.13
2023-03-04T08:06:19.176Z,25.17
2023-03-04T08:08:46.357Z,22.85
2023-03-04T08:11:15.861Z,26.95
2023-03-04T08:13:42.985Z,26.50
2023-03-04T08:16:13.080Z,27.35
2023-03-04T08:18:40.643Z,23.52
2023-03-04T08:21:12.029Z,25.10
2023-03-04T08:23:39.941Z,25.50
2023-03-04T08:26:15.526Z,22.65
2023-03-04T08:28:42.306Z,24.92
2023-03-04T08:31:09.043Z,26.98
2023-03-04T08:33:35.834Z,25.92
2023-03-04T08:36:02.538Z,22.77
2023-03-04T08:38:29.274Z,24.38
2023-03-04T08:40:57.074Z,24.23
2023-03-04T08:43:25.412Z,24.60
2023-03-04T08:45:53.852Z,21.85
2023-03-04T08:48:21.392Z,22.73
2023-03-04T08:50:48.549Z,20.83
2023-03-04T08:53:16.226Z,21.85
2023-03-04T08:55:43.602Z,20.85
2023-03-04T08:58:11.229Z,21.02
2023-03-04T09:00:41.174Z,19.90
2023-03-04T09:03:07.805Z,20.10
2023-03-04T09:05:34.505Z,22.20
2023-03-04T09:08:01.228Z,21.42
2023-03-04T09:10:27.970Z,19.98
2023-03-04T09:12:54.794Z,19.80
2023-03-04T09:15:21.409Z,18.73
2023-03-04T09:17:48.171Z,19.50
2023-03-04T09:20:14.998Z,21.73
2023-03-04T09:22:42.101Z,20.85
2023-03-04T09:25:13.007Z,23.13
2023-03-04T09:27:40.145Z,22.58
2023-03-04T09:30:07.940Z,20.90
2023-03-04T09:32:34.714Z,21.45
2023-03-04T09:35:01.541Z,16.52
2023-03-04T09:37:28.175Z,17.90
2023-03-04T09:39:54.866Z,14.73
2023-03-04T09:42:33.363Z,17.58
2023-03-04T09:45:00.547Z,15.73
2023-03-04T09:47:27.334Z,19.38
2023-03-04T09:50:00.611Z,20.00
2023-03-04T09:53:04.349Z,17.17
2023-03-04T09:55:37.923Z,18.30
2023-03-04T09:58:26.629Z,17.40
2023-03-04T10:01:05.314Z,19.65
2023-03-04T10:03:43.359Z,17.38
2023-03-04T10:06:12.545Z,16.75
2023-03-04T10:09:00.763Z,18.05
2023-03-04T10:11:37.207Z,14.38
2023-03-04T10:14:16.809Z,14.90
2023-03-04T10:16:49.591Z,17.30
2023-03-04T10:19:54.110Z,14.38
2023-03-04T10:22:25.013Z,17.23
2023-03-04T10:24:54.861Z,13.73
2023-03-04T10:27:23.769Z,15.82
2023-03-04T10:29:50.827Z,13.60
2023-03-04T10:32:19.688Z,13.60
2023-03-04T10:34:47.027Z,12.25
2023-03-04T10:37:13.922Z,13.70
2023-03-04T10:39:42.983Z,18.42
2023-03-04T10:42:16.012Z,17.38
2023-03-04T10:44:53.019Z,15.38
2023-03-04T10:47:19.677Z,15.70
2023-03-04T10:49:54.788Z,16.50
2023-03-04T10:52:39.784Z,14.70
2023-03-04T10:55:15.848Z,13.35
2023-03-04T10:57:44.426Z,12.30
2023-03-04T11:00:23.623Z,12.20
2023-03-04T11:02:50.492Z,11.68
2023-03-04T11:05:20.144Z,11.85
2023-03-04T11:07:59.143Z,9.20
2023-03-04T11:10:30.493Z,9.00
2023-03-04T11:13:01.745Z,8.05
2023-03-04T11:15:31.375Z,7.78
2023-03-04T11:18:02.049Z,6.47
2023-03-04T11:20:33.952Z,8.15
2023-03-04T11:23:35.262Z,8.55
2023-03-04T11:26:05.246Z,8.18
2023-03-04T11:28:42.555Z,7.22
2023-03-04T11:31:40.707Z,6.75
2023-03-04T11:34:34.889Z,7.82
2023-03-04T11:37:19.505Z,6.55
2023-03-04T11:39:59.444Z,5.97
2023-03-04T11:42:45.748Z,7.18
2023-03-04T11:45:29.553Z,7.10
2023-03-04T11:48:13.507Z,7.07
2023-03-04T11:51:05.733Z,8.40
2023-03-04T11:54:09.798Z,7.75
2023-03-04T11:56:45.864Z,7.22
2023-03-04T11:59:44.759Z,7.90
2023-03-04T12:02:13.655Z,6.95
2023-03-04T12:04:42.809Z,7.65
2023-03-04T12:10:16.133Z,6.35
2023-03-04T12:13:01.642Z,5.70
2023-03-04T12:15:49.553Z,5.72
2023-03-04T12:18:47.409Z,6.95
2023-03-04T12:21:28.750Z,6.57
2023-03-04T12:24:27.551Z,7.22
2023-03-04T12:27:14.436Z,8.20
2023-03-04T12:29:57.573Z,7.20
2023-03-04T12:32:37.174Z,7.68
2023-03-04T12:35:22.395Z,6.55
2023-03-04T12:38:07.691Z,9.23
2023-03-04T12:40:56.664Z,11.18
2023-03-04T12:43:41.602Z,11.52
2023-03-04T12:46:30.324Z,11.70
2023-03-04T12:49:16.896Z,10.48
2023-03-04T12:51:46.380Z,9.65
2023-03-04T12:54:28.137Z,12.07
2023-03-04T12:56:58.136Z,12.30
2023-03-04T12:59:26.761Z,11.52
2023-03-04T13:02:31.139Z,11.57
2023-03-04T13:05:19.478Z,14.15
2023-03-04T13:08:13.825Z,11.48
2023-03-04T13:10:40.691Z,13.93
2023-03-04T13:13:34.481Z,12.00
2023-03-04T13:16:11.549Z,13.85
2023-03-04T13:18:39.602Z,12.98
2023-03-04T13:21:07.900Z,15.35
2023-03-04T13:23:34.937Z,12.65
2023-03-04T13:26:21.590Z,13.10
2023-03-04T13:28:53.508Z,12.77
2023-03-04T13:31:26.681Z,12.02
2023-03-04T13:33:57.498Z,11.73
2023-03-04T13:36:55.212Z,13.63
2023-03-04T13:39:27.693Z,16.63
2023-03-04T13:41:56.785Z,14.80
2023-03-04T13:44:44.463Z,16.58
2023-03-04T13:49:44.599Z,19.05
2023-03-04T13:52:40.384Z,17.70
2023-03-04T13:55:36.030Z,12.57
2023-03-04T13:58:15.109Z,14.75
2023-03-04T14:00:48.507Z,13.80
2023-03-04T14:03:21.737Z,16.42
2023-03-04T14:05:48.858Z,14.25
2023-03-04T14:08:20.377Z,15.63
2023-03-04T14:10:56.144Z,15.75
2023-03-04T14:13:22.946Z,15.20
2023-03-04T14:15:59.895Z,17.02
2023-03-04T14:18:28.166Z,16.73
2023-03-04T14:20:59.041Z,15.95
2023-03-04T14:23:34.504Z,15.75
2023-03-04T14:28:32.097Z,14.15
2023-03-04T14:30:58.933Z,16.52
2023-03-04T14:33:28.037Z,17.80
2023-03-04T14:35:58.237Z,19.23
2023-03-04T14:38:30.074Z,18.48
2023-03-04T14:41:08.869Z,18.40
2023-03-04T14:43:43.724Z,16.77
2023-03-04T14:46:13.820Z,16.75
2023-03-04T14:48:45.422Z,17.05
2023-03-04T14:51:38.710Z,17.08
2023-03-04T14:54:05.990Z,19.52
2023-03-04T14:56:35.398Z,18.13
2023-03-04T14:59:02.750Z,16.10
2023-03-04T15:01:34.847Z,17.15
2023-03-04T15:04:11.733Z,17.42
2023-03-04T15:06:47.832Z,15.68
2023-03-04T15:09:21.415Z,15.95
2023-03-04T15:11:55.315Z,16.77
2023-03-04T15:14:47.545Z,16.25
2023-03-04T15:17:39.870Z,14.63
2023-03-04T15:20:06.477Z,14.35
2023-03-04T15:22:34.296Z,13.60
2023-03-04T15:25:01.214Z,13.48
2023-03-04T15:27:29.302Z,14.00
2023-03-04T15:29:59.425Z,12.18
2023-03-04T15:32:29.763Z,13.55
2023-03-04T15:34:56.954Z,14.00
2023-03-04T15:37:26.817Z,13.48
2023-03-04T15:39:55.744Z,14.73
2023-03-04T15:42:23.088Z,15.27
2023-03-04T15:44:49.811Z,16.52
2023-03-04T15:47:16.670Z,16.52
2023-03-04T15:49:47.533Z,15.85
2023-03-04T15:52:20.136Z,16.70
2023-03-04T15:54:48.301Z,20.30
2023-03-04T15:57:24.487Z,18.58
2023-03-04T15:59:51.922Z,19.08
2023-03-04T16:02:27.704Z,18.30
2023-03-04T16:04:54.596Z,13.68
2023-03-04T16:07:24.894Z,15.80
2023-03-04T16:09:59.355Z,15.38
2023-03-04T16:12:27.754Z,13.60
2023-03-04T16:14:54.471Z,14.73
2023-03-04T16:17:21.163Z,16.58
2023-03-04T16:19:47.998Z,15.75
2023-03-04T16:22:24.209Z,15.80
2023-03-04T16:24:51.775Z,17.35
2023-03-04T16:27:20.041Z,15.82
2023-03-04T16:29:46.710Z,15.68
2023-03-04T16:32:13.388Z,15.93
2023-03-04T16:34:40.116Z,15.40
2023-03-04T16:37:15.006Z,19.70
2023-03-04T16:39:46.096Z,17.38
2023-03-04T16:42:19.214Z,19.33
2023-03-04T16:44:46.309Z,18.77
2023-03-04T16:47:12.927Z,23.25
2023-03-04T16:49:39.579Z,20.15
2023-03-04T16:52:07.063Z,15.02
2023-03-04T16:54:35.369Z,15.27
2023-03-04T16:57:02.497Z,16.80
2023-03-04T16:59:29.523Z,16.48
2023-03-04T17:01:56.525Z,19.20
2023-03-04T17:04:23.806Z,20.17
2023-03-04T17:06:50.629Z,22.25
2023-03-04T17:09:17.337Z,23.63
2023-03-04T17:11:44.165Z,19.35
2023-03-04T17:14:10.887Z,16.77
2023-03-04T17:16:37.586Z,17.52
2023-03-04T17:19:04.340Z,21.13
2023-03-04T17:21:31.014Z,23.85
2023-03-04T17:23:57.930Z,21.70
2023-03-04T17:26:25.233Z,23.52
2023-03-04T17:28:52.029Z,22.05
2023-03-04T17:31:20.124Z,22.90
2023-03-04T17:33:47.199Z,41.65
2023-03-04T17:36:15.476Z,19.30
2023-03-04T17:38:42.819Z,26.75
2023-03-04T17:41:15.940Z,22.10
2023-03-04T17:43:47.190Z,30.15
2023-03-04T17:46:15.489Z,31.13
2023-03-04T17:48:42.452Z,13.80
2023-03-04T17:51:09.918Z,14.32
2023-03-04T17:53:36.958Z,24.10
2023-03-04T17:56:06.059Z,25.98
2023-03-04T17:58:35.014Z,28.52
2023-03-04T18:01:23.262Z,25.60
2023-03-04T18:03:50.662Z,19.65
2023-03-04T18:06:18.399Z,20.73
2023-03-04T18:08:45.867Z,25.48
2023-03-04T18:11:12.835Z,20.92
2023-03-04T18:13:40.734Z,19.77
2023-03-04T18:16:09.037Z,20.85
2023-03-04T18:18:36.507Z,21.65
2023-03-04T18:21:04.352Z,28.40
2023-03-04T18:23:31.317Z,27.80
2023-03-04T18:25:58.342Z,26.35
2023-03-04T18:28:25.304Z,28.20
2023-03-04T18:30:53.137Z,29.00
2023-03-04T18:33:20.530Z,23.70
2023-03-04T18:35:47.615Z,20.92
2023-03-04T18:38:14.317Z,21.60
2023-03-04T18:40:42.047Z,20.70
2023-03-04T18:43:08.857Z,19.92
2023-03-04T18:45:35.721Z,22.38
2023-03-04T18:48:02.431Z,18.83
2023-03-04T18:50:29.190Z,29.08
2023-03-04T18:52:55.819Z,26.35
2023-03-04T18:55:23.211Z,23.60
2023-03-04T18:57:52.597Z,32.47
2023-03-04T19:02:53.066Z,36.92
2023-03-04T19:05:27.372Z,37.40
2023-03-04T19:07:54.371Z,37.70
2023-03-04T19:10:21.310Z,36.03
2023-03-04T19:12:48.071Z,38.13
2023-03-04T19:15:15.130Z,55.78
2023-03-04T19:17:43.759Z,54.35
2023-03-04T19:20:11.298Z,63.53
2023-03-04T19:22:38.031Z,59.05
2023-03-04T19:25:05.025Z,76.90
2023-03-04T19:27:32.125Z,71.28
2023-03-04T19:29:58.950Z,70.53
2023-03-04T19:32:26.328Z,80.07
2023-03-04T19:34:53.028Z,90.47
2023-03-04T19:37:19.842Z,72.63
2023-03-04T19:39:46.609Z,68.97
2023-03-04T19:42:13.766Z,69.07
2023-03-04T19:44:43.058Z,65.75
2023-03-04T19:47:11.093Z,61.90
2023-03-04T19:49:37.850Z,61.03
2023-03-04T19:52:04.946Z,59.60
2023-03-04T19:54:32.017Z,59.33
2023-03-04T19:56:58.792Z,51.92
2023-03-04T19:59:25.642Z,47.75
2023-03-04T20:01:52.560Z,43.70
2023-03-04T20:04:22.576Z,39.78
2023-03-04T20:06:50.505Z,44.60
2023-03-04T20:09:18.893Z,42.75
2023-03-04T20:11:57.211Z,33.85
2023-03-04T20:14:24.811Z,33.35
2023-03-04T20:16:51.586Z,37.13
2023-03-04T20:19:18.243Z,37.85
2023-03-04T20:21:44.945Z,39.25
2023-03-04T20:24:11.810Z,37.45
2023-03-04T20:26:39.622Z,37.70
2023-03-04T20:29:06.756Z,32.40
2023-03-04T20:31:38.309Z,33.42
2023-03-04T20:34:06.995Z,33.92
2023-03-04T20:36:34.604Z,37.20
2023-03-04T20:39:02.867Z,37.13
2023-03-04T20:41:30.475Z,34.60
2023-03-04T20:43:57.259Z,35.50
2023-03-04T20:46:30.814Z,27.95
2023-03-04T20:49:00.192Z,27.10
2023-03-04T20:53:55.433Z,26.55
2023-03-04T20:56:23.274Z,28.77
2023-03-04T20:58:50.691Z,27.38
2023-03-04T21:01:17.623Z,29.42
2023-03-04T21:03:44.551Z,30.98
2023-03-04T21:06:13.262Z,26.67
2023-03-04T21:08:41.069Z,28.58
2023-03-04T21:11:10.932Z,29.02
2023-03-04T21:13:37.857Z,27.77
2023-03-04T21:16:05.128Z,25.40
2023-03-04T21:18:31.926Z,24.60
2023-03-04T21:20:58.632Z,26.33
2023-03-04T21:23:25.307Z,24.98
2023-03-04T21:25:51.986Z,21.73
2023-03-04T21:28:20.348Z,25.85
2023-03-04T21:30:47.087Z,30.85
2023-03-04T21:33:18.211Z,55.08
2023-03-04T21:35:47.579Z,91.70
2023-03-04T21:40:42.851Z,43.75
2023-03-04T21:43:09.883Z,43.95
2023-03-04T21:45:37.818Z,43.38
2023-03-04T21:48:05.168Z,42.00
2023-03-04T21:50:31.844Z,32.08
2023-03-04T21:52:58.551Z,32.55
2023-03-04T21:55:25.232Z,30.00
2023-03-04T21:57:51.897Z,31.20
2023-03-04T22:00:19.121Z,32.72
2023-03-04T22:02:45.801Z,33.63
2023-03-04T22:05:12.462Z,31.23
2023-03-04T22:07:39.165Z,31.80
2023-03-04T22:10:06.789Z,30.40
2023-03-04T22:12:33.485Z,31.02
2023-03-04T22:15:00.492Z,29.95
2023-03-04T22:17:27.259Z,29.13
2023-03-04T22:19:55.183Z,29.73
2023-03-04T22:22:21.901Z,30.63
2023-03-04T22:24:48.588Z,33.00
2023-03-04T22:27:15.612Z,31.38
2023-03-04T22:29:42.327Z,30.80
2023-03-04T22:32:09.158Z,31.05
2023-03-04T22:34:35.943Z,33.13
2023-03-04T22:37:02.612Z,30.35
2023-03-04T22:39:29.277Z,32.75
2023-03-04T22:41:55.951Z,45.00
2023-03-04T22:44:22.636Z,44.88
2023-03-04T22:46:49.316Z,48.92
2023-03-04T22:49:16.088Z,47.38
2023-03-04T22:51:44.047Z,41.30
2023-03-04T22:54:15.062Z,45.47
2023-03-04T22:56:41.793Z,39.08
2023-03-04T22:59:08.512Z,35.78
2023-03-04T23:01:35.460Z,36.70
2023-03-04T23:04:02.329Z,34.85
2023-03-04T23:06:30.459Z,33.55
2023-03-04T23:08:58.762Z,32.33
2023-03-04T23:11:28.637Z,33.65
2023-03-04T23:13:56.668Z,33.25
2023-03-04T23:16:24.283Z,36.50
2023-03-04T23:18:51.365Z,34.35
2023-03-04T23:21:21.360Z,32.75
2023-03-04T23:23:48.677Z,42.33
2023-03-04T23:26:26.915Z,44.50
2023-03-04T23:28:55.788Z,56.95
2023-03-04T23:31:23.019Z,53.63
2023-03-04T23:33:49.767Z,49.17
2023-03-04T23:36:18.346Z,43.30
2023-03-04T23:38:46.615Z,43.65
2023-03-04T23:41:18.486Z,41.20
2023-03-04T23:43:45.824Z,39.83
2023-03-04T23:46:13.003Z,38.35
2023-03-04T23:48:43.230Z,38.88
2023-03-04T23:51:10.204Z,34.83
2023-03-04T23:53:39.166Z,32.13
2023-03-04T23:56:10.115Z,30.42
2023-03-04T23:58:37.094Z,31.08
